sensor_id;sensor_type;location;lat;lon;timestamp;pressure;altitude;pressure_sealevel;temperature;humidity
49947;BME280;35839;48.662;13.300;2023-05-14T05:05:35;97229.84;;;14.50;78.97
49947;BME280;35839;48.662;13.300;2023-05-14T05:08:00;97232.63;;;14.33;81.54
49947;BME280;35839;48.662;13.300;2023-05-14T05:10:25;97232.69;;;14.40;80.96
49947;BME280;35839;48.662;13.300;2023-05-14T05:12:51;97227.69;;;14.68;78.48
49947;BME280;35839;48.662;13.300;2023-05-14T05:15:16;97232.91;;;14.77;77.99
49947;BME280;35839;48.662;13.300;2023-05-14T05:17:41;97227.47;;;14.78;77.45
49947;BME280;35839;48.662;13.300;2023-05-14T05:20:07;97223.19;;;14.92;76.31
49947;BME280;35839;48.662;13.300;2023-05-14T05:22:34;97219.38;;;15.09;77.98
49947;BME280;35839;48.662;13.300;2023-05-14T05:25:00;97220.28;;;15.16;77.85
49947;BME280;35839;48.662;13.300;2023-05-14T05:27:25;97221.09;;;14.87;79.82
49947;BME280;35839;48.662;13.300;2023-05-14T05:29:51;97221.97;;;15.24;78.74
49947;BME280;35839;48.662;13.300;2023-05-14T05:32:16;97221.44;;;15.44;77.71
49947;BME280;35839;48.662;13.300;2023-05-14T05:34:41;97216.97;;;15.44;78.44
49947;BME280;35839;48.662;13.300;2023-05-14T05:37:06;97215.94;;;15.96;77.16
49947;BME280;35839;48.662;13.300;2023-05-14T05:39:33;97224.38;;;16.07;76.68
49947;BME280;35839;48.662;13.300;2023-05-14T05:41:59;97224.63;;;16.12;76.64
49947;BME280;35839;48.662;13.300;2023-05-14T05:44:25;97219.72;;;16.09;78.85
49947;BME280;35839;48.662;13.300;2023-05-14T05:46:51;97220.72;;;16.08;79.59
49947;BME280;35839;48.662;13.300;2023-05-14T05:49:16;97219.69;;;16.52;77.33
49947;BME280;35839;48.662;13.300;2023-05-14T05:51:41;97215.50;;;16.64;78.66
49947;BME280;35839;48.662;13.300;2023-05-14T05:54:06;97209.06;;;16.73;76.35
49947;BME280;35839;48.662;13.300;2023-05-14T05:56:32;97203.13;;;16.71;75.91
49947;BME280;35839;48.662;13.300;2023-05-14T05:58:57;97202.94;;;17.01;75.55
49947;BME280;35839;48.662;13.300;2023-05-14T06:01:22;97205.81;;;17.06;75.83
49947;BME280;35839;48.662;13.300;2023-05-14T06:03:48;97207.06;;;17.10;74.83
49947;BME280;35839;48.662;13.300;2023-05-14T06:06:13;97210.34;;;17.12;75.48
49947;BME280;35839;48.662;13.300;2023-05-14T06:08:39;97212.47;;;17.30;74.63
49947;BME280;35839;48.662;13.300;2023-05-14T06:11:04;97215.22;;;17.15;75.50
49947;BME280;35839;48.662;13.300;2023-05-14T06:13:30;97209.28;;;17.55;73.28
49947;BME280;35839;48.662;13.300;2023-05-14T06:15:55;97210.84;;;17.36;74.88
49947;BME280;35839;48.662;13.300;2023-05-14T06:18:20;97209.09;;;17.56;73.12
49947;BME280;35839;48.662;13.300;2023-05-14T06:20:45;97203.97;;;17.48;74.25
49947;BME280;35839;48.662;13.300;2023-05-14T06:23:11;97204.25;;;17.66;75.05
49947;BME280;35839;48.662;13.300;2023-05-14T06:25:36;97206.09;;;17.73;74.23
49947;BME280;35839;48.662;13.300;2023-05-14T06:28:01;97206.19;;;17.38;75.54
49947;BME280;35839;48.662;13.300;2023-05-14T06:30:27;97207.66;;;17.47;74.21
49947;BME280;35839;48.662;13.300;2023-05-14T06:32:52;97212.53;;;17.50;74.59
49947;BME280;35839;48.662;13.300;2023-05-14T06:35:17;97211.88;;;17.35;75.33
49947;BME280;35839;48.662;13.300;2023-05-14T06:37:43;97206.03;;;17.53;74.66
49947;BME280;35839;48.662;13.300;2023-05-14T06:40:09;97208.31;;;17.69;73.16
49947;BME280;35839;48.662;13.300;2023-05-14T06:42:34;97201.69;;;17.86;73.08
49947;BME280;35839;48.662;13.300;2023-05-14T06:45:00;97197.63;;;18.10;73.14
49947;BME280;35839;48.662;13.300;2023-05-14T06:47:25;97203.13;;;17.89;73.93
49947;BME280;35839;48.662;13.300;2023-05-14T06:49:50;97196.41;;;18.06;72.02
49947;BME280;35839;48.662;13.300;2023-05-14T06:52:15;97200.53;;;18.42;72.51
49947;BME280;35839;48.662;13.300;2023-05-14T06:54:41;97198.91;;;18.81;71.15
49947;BME280;35839;48.662;13.300;2023-05-14T06:57:06;97194.66;;;19.25;68.43
49947;BME280;35839;48.662;13.300;2023-05-14T06:59:31;97185.88;;;19.31;68.17
49947;BME280;35839;48.662;13.300;2023-05-14T07:01:57;97194.50;;;19.13;68.54
49947;BME280;35839;48.662;13.300;2023-05-14T07:04:22;97189.28;;;19.45;66.19
49947;BME280;35839;48.662;13.300;2023-05-14T07:06:47;97192.94;;;19.51;67.66
49947;BME280;35839;48.662;13.300;2023-05-14T07:09:14;97191.38;;;19.30;68.47
49947;BME280;35839;48.662;13.300;2023-05-14T07:11:40;97190.78;;;19.79;65.55
49947;BME280;35839;48.662;13.300;2023-05-14T07:14:05;97176.72;;;19.21;68.38
49947;BME280;35839;48.662;13.300;2023-05-14T07:16:30;97187.78;;;19.11;67.65
49947;BME280;35839;48.662;13.300;2023-05-14T07:18:56;97183.72;;;19.02;68.10
49947;BME280;35839;48.662;13.300;2023-05-14T07:21:21;97173.84;;;19.22;69.14
49947;BME280;35839;48.662;13.300;2023-05-14T07:23:46;97173.41;;;19.32;66.54
49947;BME280;35839;48.662;13.300;2023-05-14T07:26:11;97173.16;;;19.47;66.50
49947;BME280;35839;48.662;13.300;2023-05-14T07:28:37;97177.44;;;19.48;66.64
49947;BME280;35839;48.662;13.300;2023-05-14T07:31:02;97185.31;;;19.16;68.21
49947;BME280;35839;48.662;13.300;2023-05-14T07:33:34;97173.91;;;19.09;69.75
49947;BME280;35839;48.662;13.300;2023-05-14T07:36:00;97169.38;;;19.16;67.39
49947;BME280;35839;48.662;13.300;2023-05-14T07:38:25;97174.88;;;19.66;67.00
49947;BME280;35839;48.662;13.300;2023-05-14T07:40:51;97172.53;;;19.51;67.16
49947;BME280;35839;48.662;13.300;2023-05-14T07:43:16;97164.66;;;19.25;68.64
49947;BME280;35839;48.662;13.300;2023-05-14T07:45:41;97164.31;;;19.53;65.72
49947;BME280;35839;48.662;13.300;2023-05-14T07:48:06;97163.47;;;19.66;66.24
49947;BME280;35839;48.662;13.300;2023-05-14T07:50:32;97168.06;;;19.38;68.69
49947;BME280;35839;48.662;13.300;2023-05-14T07:52:57;97165.69;;;20.07;64.48
49947;BME280;35839;48.662;13.300;2023-05-14T07:55:23;97154.41;;;19.80;67.54
49947;BME280;35839;48.662;13.300;2023-05-14T07:57:48;97153.41;;;20.06;66.88
49947;BME280;35839;48.662;13.300;2023-05-14T08:00:13;97153.28;;;20.70;63.70
49947;BME280;35839;48.662;13.300;2023-05-14T08:02:40;97147.69;;;20.96;62.17
49947;BME280;35839;48.662;13.300;2023-05-14T08:05:06;97143.41;;;20.52;64.09
49947;BME280;35839;48.662;13.300;2023-05-14T08:07:32;97142.38;;;20.96;61.56
49947;BME280;35839;48.662;13.300;2023-05-14T08:09:57;97135.59;;;21.00;63.46
49947;BME280;35839;48.662;13.300;2023-05-14T08:12:23;97130.81;;;21.21;61.96
49947;BME280;35839;48.662;13.300;2023-05-14T08:14:48;97138.84;;;20.84;63.35
49947;BME280;35839;48.662;13.300;2023-05-14T08:17:13;97130.19;;;20.70;62.61
49947;BME280;35839;48.662;13.300;2023-05-14T08:19:39;97131.94;;;20.08;63.89
49947;BME280;35839;48.662;13.300;2023-05-14T08:22:04;97127.81;;;20.55;64.62
49947;BME280;35839;48.662;13.300;2023-05-14T08:24:30;97123.75;;;20.78;64.17
49947;BME280;35839;48.662;13.300;2023-05-14T08:26:55;97120.94;;;20.91;63.15
49947;BME280;35839;48.662;13.300;2023-05-14T08:29:21;97109.53;;;21.02;62.91
49947;BME280;35839;48.662;13.300;2023-05-14T08:31:48;97112.56;;;20.88;62.41
49947;BME280;35839;48.662;13.300;2023-05-14T08:34:16;97105.38;;;21.07;61.61
49947;BME280;35839;48.662;13.300;2023-05-14T08:36:41;97101.19;;;20.99;61.31
49947;BME280;35839;48.662;13.300;2023-05-14T08:39:07;97097.13;;;20.78;62.20
49947;BME280;35839;48.662;13.300;2023-05-14T08:41:34;97094.34;;;20.73;62.33
49947;BME280;35839;48.662;13.300;2023-05-14T08:44:12;97100.03;;;21.43;61.53
49947;BME280;35839;48.662;13.300;2023-05-14T08:46:38;97085.03;;;21.61;58.40
49947;BME280;35839;48.662;13.300;2023-05-14T08:49:14;97082.59;;;21.59;58.23
49947;BME280;35839;48.662;13.300;2023-05-14T08:51:46;97089.63;;;21.54;60.19
49947;BME280;35839;48.662;13.300;2023-05-14T08:54:14;97081.47;;;21.67;60.73
49947;BME280;35839;48.662;13.300;2023-05-14T08:56:42;97079.22;;;22.53;54.53
49947;BME280;35839;48.662;13.300;2023-05-14T08:59:08;97080.06;;;22.30;56.76
49947;BME280;35839;48.662;13.300;2023-05-14T09:01:36;97080.56;;;21.85;57.36
49947;BME280;35839;48.662;13.300;2023-05-14T09:04:03;97062.25;;;22.00;57.25
49947;BME280;35839;48.662;13.300;2023-05-14T09:06:35;97063.47;;;22.40;57.34
49947;BME280;35839;48.662;13.300;2023-05-14T09:09:02;97069.13;;;22.67;59.13
49947;BME280;35839;48.662;13.300;2023-05-14T09:11:27;97066.53;;;22.84;55.89
49947;BME280;35839;48.662;13.300;2023-05-14T09:13:53;97068.03;;;23.77;51.71
49947;BME280;35839;48.662;13.300;2023-05-14T09:16:19;97071.34;;;23.39;54.27
49947;BME280;35839;48.662;13.300;2023-05-14T09:18:45;97067.53;;;23.64;53.06
49947;BME280;35839;48.662;13.300;2023-05-14T09:21:13;97069.69;;;23.50;51.77
49947;BME280;35839;48.662;13.300;2023-05-14T09:23:41;97068.53;;;23.46;52.18
49947;BME280;35839;48.662;13.300;2023-05-14T09:26:07;97072.22;;;23.28;54.10
49947;BME280;35839;48.662;13.300;2023-05-14T09:28:33;97074.78;;;23.23;51.88
49947;BME280;35839;48.662;13.300;2023-05-14T09:30:58;97074.88;;;22.99;53.60
49947;BME280;35839;48.662;13.300;2023-05-14T09:33:27;97061.50;;;23.56;50.00
49947;BME280;35839;48.662;13.300;2023-05-14T09:36:00;97062.94;;;24.10;51.39
49947;BME280;35839;48.662;13.300;2023-05-14T09:38:30;97061.34;;;23.92;52.09
49947;BME280;35839;48.662;13.300;2023-05-14T09:40:56;97053.66;;;24.34;52.29
49947;BME280;35839;48.662;13.300;2023-05-14T09:43:22;97057.66;;;23.98;49.51
49947;BME280;35839;48.662;13.300;2023-05-14T09:45:47;97059.50;;;23.64;47.43
49947;BME280;35839;48.662;13.300;2023-05-14T09:48:12;97060.84;;;23.95;51.07
49947;BME280;35839;48.662;13.300;2023-05-14T09:50:42;97051.44;;;23.75;50.85
49947;BME280;35839;48.662;13.300;2023-05-14T09:53:07;97050.28;;;23.71;51.48
49947;BME280;35839;48.662;13.300;2023-05-14T09:55:35;97048.31;;;23.21;49.37
49947;BME280;35839;48.662;13.300;2023-05-14T09:58:00;97047.13;;;23.00;49.77
49947;BME280;35839;48.662;13.300;2023-05-14T10:00:26;97053.47;;;22.70;51.92
49947;BME280;35839;48.662;13.300;2023-05-14T10:02:52;97048.72;;;22.02;54.71
49947;BME280;35839;48.662;13.300;2023-05-14T10:05:18;97059.28;;;21.43;56.90
49947;BME280;35839;48.662;13.300;2023-05-14T10:07:47;97056.03;;;21.22;62.06
49947;BME280;35839;48.662;13.300;2023-05-14T10:10:14;97054.50;;;20.84;62.22
49947;BME280;35839;48.662;13.300;2023-05-14T10:12:42;97050.13;;;20.72;62.85
49947;BME280;35839;48.662;13.300;2023-05-14T10:15:16;97045.78;;;21.26;61.24
49947;BME280;35839;48.662;13.300;2023-05-14T10:17:47;97050.44;;;20.63;63.57
49947;BME280;35839;48.662;13.300;2023-05-14T10:20:14;97039.50;;;21.02;63.86
49947;BME280;35839;48.662;13.300;2023-05-14T10:22:41;97039.66;;;21.79;62.53
49947;BME280;35839;48.662;13.300;2023-05-14T10:25:07;97046.25;;;20.86;62.85
49947;BME280;35839;48.662;13.300;2023-05-14T10:27:33;97034.34;;;22.03;60.54
49947;BME280;35839;48.662;13.300;2023-05-14T10:29:58;97040.84;;;22.54;57.33
49947;BME280;35839;48.662;13.300;2023-05-14T10:32:26;97036.56;;;21.94;59.02
49947;BME280;35839;48.662;13.300;2023-05-14T10:34:52;97037.47;;;21.88;60.98
49947;BME280;35839;48.662;13.300;2023-05-14T10:37:20;97037.47;;;22.35;57.76
49947;BME280;35839;48.662;13.300;2023-05-14T10:42:34;97029.94;;;22.44;57.96
49947;BME280;35839;48.662;13.300;2023-05-14T10:45:06;97028.06;;;21.85;60.42
49947;BME280;35839;48.662;13.300;2023-05-14T10:47:34;97025.00;;;21.58;60.26
49947;BME280;35839;48.662;13.300;2023-05-14T10:50:02;97023.44;;;22.40;59.38
49947;BME280;35839;48.662;13.300;2023-05-14T10:52:28;97024.97;;;22.36;57.24
49947;BME280;35839;48.662;13.300;2023-05-14T10:54:56;97019.38;;;23.01;55.50
49947;BME280;35839;48.662;13.300;2023-05-14T10:57:24;97013.81;;;22.50;55.56
49947;BME280;35839;48.662;13.300;2023-05-14T10:59:55;97011.06;;;22.22;57.04
49947;BME280;35839;48.662;13.300;2023-05-14T11:05:03;97011.25;;;21.50;60.16
49947;BME280;35839;48.662;13.300;2023-05-14T11:07:37;97014.06;;;21.78;59.62
49947;BME280;35839;48.662;13.300;2023-05-14T11:10:08;97010.38;;;22.15;58.54
49947;BME280;35839;48.662;13.300;2023-05-14T11:12:35;97012.72;;;22.63;56.17
49947;BME280;35839;48.662;13.300;2023-05-14T11:15:03;97003.91;;;22.63;56.28
49947;BME280;35839;48.662;13.300;2023-05-14T11:17:30;96997.22;;;22.48;56.66
49947;BME280;35839;48.662;13.300;2023-05-14T11:19:56;97003.78;;;22.98;55.03
49947;BME280;35839;48.662;13.300;2023-05-14T11:22:22;97002.69;;;22.42;55.66
49947;BME280;35839;48.662;13.300;2023-05-14T11:24:48;96993.66;;;23.12;53.76
49947;BME280;35839;48.662;13.300;2023-05-14T11:27:13;96999.50;;;22.68;55.86
49947;BME280;35839;48.662;13.300;2023-05-14T11:29:43;96994.44;;;22.55;56.57
49947;BME280;35839;48.662;13.300;2023-05-14T11:32:09;97000.25;;;22.05;59.77
49947;BME280;35839;48.662;13.300;2023-05-14T11:34:34;96995.66;;;22.24;57.39
49947;BME280;35839;48.662;13.300;2023-05-14T11:37:02;97013.88;;;22.67;57.29
49947;BME280;35839;48.662;13.300;2023-05-14T11:39:28;97024.59;;;21.97;58.69
49947;BME280;35839;48.662;13.300;2023-05-14T11:41:56;97021.22;;;21.24;59.45
49947;BME280;35839;48.662;13.300;2023-05-14T11:44:22;97027.84;;;19.86;68.49
49947;BME280;35839;48.662;13.300;2023-05-14T15:34:37;96989.63;;;12.88;56.43
49947;BME280;35839;48.662;13.300;2023-05-14T15:37:02;96981.72;;;12.88;56.93
49947;BME280;35839;48.662;13.300;2023-05-14T15:39:28;96982.56;;;13.12;56.82
49947;BME280;35839;48.662;13.300;2023-05-14T15:41:55;96972.41;;;13.08;57.81
49947;BME280;35839;48.662;13.300;2023-05-14T15:44:20;96976.31;;;13.13;56.93
49947;BME280;35839;48.662;13.300;2023-05-14T15:46:46;96982.56;;;13.12;56.89
49947;BME280;35839;48.662;13.300;2023-05-14T15:49:11;96977.19;;;13.28;57.68
49947;BME280;35839;48.662;13.300;2023-05-14T15:51:36;96975.53;;;13.27;58.03
49947;BME280;35839;48.662;13.300;2023-05-14T15:54:02;96980.00;;;13.26;56.64
49947;BME280;35839;48.662;13.300;2023-05-14T15:56:27;96973.59;;;13.29;57.09
49947;BME280;35839;48.662;13.300;2023-05-14T15:58:53;96973.34;;;13.39;58.01
49947;BME280;35839;48.662;13.300;2023-05-14T16:01:18;96977.06;;;13.44;58.56
49947;BME280;35839;48.662;13.300;2023-05-14T16:03:43;96976.88;;;13.31;58.09
49947;BME280;35839;48.662;13.300;2023-05-14T16:06:09;96975.44;;;13.43;59.38
49947;BME280;35839;48.662;13.300;2023-05-14T16:08:35;96981.50;;;13.44;58.57
49947;BME280;35839;48.662;13.300;2023-05-14T16:11:01;96973.25;;;13.47;58.96
49947;BME280;35839;48.662;13.300;2023-05-14T16:13:26;96975.22;;;13.30;59.00
49947;BME280;35839;48.662;13.300;2023-05-14T16:15:52;96968.88;;;13.39;58.93
49947;BME280;35839;48.662;13.300;2023-05-14T16:18:17;96960.56;;;13.36;58.40
49947;BME280;35839;48.662;13.300;2023-05-14T16:20:42;96960.03;;;13.40;59.78
49947;BME280;35839;48.662;13.300;2023-05-14T16:23:08;96960.31;;;13.60;58.04
49947;BME280;35839;48.662;13.300;2023-05-14T16:25:33;96961.78;;;13.63;58.84
49947;BME280;35839;48.662;13.300;2023-05-14T16:28:00;96967.84;;;13.63;58.96
49947;BME280;35839;48.662;13.300;2023-05-14T16:30:26;96961.13;;;13.61;58.99
49947;BME280;35839;48.662;13.300;2023-05-14T16:32:51;96964.41;;;13.63;58.76
49947;BME280;35839;48.662;13.300;2023-05-14T16:35:18;96953.88;;;13.63;59.15
49947;BME280;35839;48.662;13.300;2023-05-14T16:37:43;96958.97;;;13.64;58.47
49947;BME280;35839;48.662;13.300;2023-05-14T16:40:09;96966.06;;;13.64;59.12
49947;BME280;35839;48.662;13.300;2023-05-14T16:42:36;96958.44;;;13.69;58.80
49947;BME280;35839;48.662;13.300;2023-05-14T16:45:02;96959.34;;;13.76;58.69
49947;BME280;35839;48.662;13.300;2023-05-14T16:47:28;96959.44;;;13.83;59.25
49947;BME280;35839;48.662;13.300;2023-05-14T16:49:53;96947.72;;;13.85;59.44
49947;BME280;35839;48.662;13.300;2023-05-14T16:52:18;96945.19;;;13.92;59.21
49947;BME280;35839;48.662;13.300;2023-05-14T16:54:44;96947.47;;;13.95;59.78
49947;BME280;35839;48.662;13.300;2023-05-14T16:57:09;96942.47;;;13.85;60.47
49947;BME280;35839;48.662;13.300;2023-05-14T16:59:36;96929.03;;;13.80;60.26
49947;BME280;35839;48.662;13.300;2023-05-14T17:02:02;96932.75;;;13.86;60.28
49947;BME280;35839;48.662;13.300;2023-05-14T17:04:27;96924.13;;;13.77;60.09
49947;BME280;35839;48.662;13.300;2023-05-14T17:06:52;96937.66;;;13.89;60.38
49947;BME280;35839;48.662;13.300;2023-05-14T17:09:18;96934.00;;;14.05;60.76
49947;BME280;35839;48.662;13.300;2023-05-14T17:11:43;96927.38;;;14.09;60.97
49947;BME280;35839;48.662;13.300;2023-05-14T17:14:09;96923.31;;;14.06;61.35
49947;BME280;35839;48.662;13.300;2023-05-14T17:16:34;96923.41;;;14.13;61.13
49947;BME280;35839;48.662;13.300;2023-05-14T17:18:59;96913.69;;;14.13;60.68
49947;BME280;35839;48.662;13.300;2023-05-14T17:21:25;96923.91;;;14.23;61.08
49947;BME280;35839;48.662;13.300;2023-05-14T17:23:50;96917.53;;;14.32;61.46
49947;BME280;35839;48.662;13.300;2023-05-14T17:26:16;96921.03;;;14.18;62.18
49947;BME280;35839;48.662;13.300;2023-05-14T17:28:41;96920.88;;;14.56;62.10
49947;BME280;35839;48.662;13.300;2023-05-14T17:31:07;96924.25;;;14.50;62.23
49947;BME280;35839;48.662;13.300;2023-05-14T17:33:32;96914.66;;;14.27;62.63
49947;BME280;35839;48.662;13.300;2023-05-14T17:35:57;96920.50;;;14.44;62.33
49947;BME280;35839;48.662;13.300;2023-05-14T17:38:23;96924.50;;;14.04;62.69
49947;BME280;35839;48.662;13.300;2023-05-14T17:40:48;96924.03;;;13.85;63.26
49947;BME280;35839;48.662;13.300;2023-05-14T17:43:14;96918.84;;;13.77;62.46
49947;BME280;35839;48.662;13.300;2023-05-14T17:45:40;96914.34;;;13.71;62.68
49947;BME280;35839;48.662;13.300;2023-05-14T17:48:05;96912.31;;;14.03;63.04
49947;BME280;35839;48.662;13.300;2023-05-14T17:50:30;96914.31;;;14.16;62.74
49947;BME280;35839;48.662;13.300;2023-05-14T17:52:56;96911.69;;;14.16;63.08
49947;BME280;35839;48.662;13.300;2023-05-14T17:55:21;96912.50;;;14.16;62.87
49947;BME280;35839;48.662;13.300;2023-05-14T17:57:47;96910.13;;;14.21;63.47
49947;BME280;35839;48.662;13.300;2023-05-14T18:00:12;96916.16;;;13.85;63.10
49947;BME280;35839;48.662;13.300;2023-05-14T18:02:40;96914.06;;;13.81;62.78
49947;BME280;35839;48.662;13.300;2023-05-14T18:05:05;96914.16;;;13.87;63.45
49947;BME280;35839;48.662;13.300;2023-05-14T18:07:31;96917.22;;;13.46;61.95
49947;BME280;35839;48.662;13.300;2023-05-14T18:09:56;96917.22;;;13.46;61.62
49947;BME280;35839;48.662;13.300;2023-05-14T18:12:22;96911.34;;;13.59;62.09
49947;BME280;35839;48.662;13.300;2023-05-14T18:14:49;96912.97;;;13.75;62.86
49947;BME280;35839;48.662;13.300;2023-05-14T18:17:15;96906.72;;;13.61;62.00
49947;BME280;35839;48.662;13.300;2023-05-14T18:19:41;96908.69;;;13.44;62.08
49947;BME280;35839;48.662;13.300;2023-05-14T18:22:06;96907.25;;;13.57;62.28
49947;BME280;35839;48.662;13.300;2023-05-14T18:24:32;96901.44;;;13.76;62.44
49947;BME280;35839;48.662;13.300;2023-05-14T18:26:58;96907.63;;;13.83;62.27
49947;BME280;35839;48.662;13.300;2023-05-14T18:29:24;96910.09;;;13.85;62.20
49947;BME280;35839;48.662;13.300;2023-05-14T18:31:50;96911.34;;;13.59;62.22
49947;BME280;35839;48.662;13.300;2023-05-14T18:34:15;96910.88;;;13.70;62.33
49947;BME280;35839;48.662;13.300;2023-05-14T18:36:41;96907.81;;;13.97;62.22
49947;BME280;35839;48.662;13.300;2023-05-14T18:39:07;96911.06;;;13.99;62.56
49947;BME280;35839;48.662;13.300;2023-05-14T18:41:32;96908.16;;;13.94;62.13
49947;BME280;35839;48.662;13.300;2023-05-14T18:43:57;96907.16;;;13.95;62.40
49947;BME280;35839;48.662;13.300;2023-05-14T18:46:23;96905.59;;;14.15;63.12
49947;BME280;35839;48.662;13.300;2023-05-14T18:48:49;96908.63;;;13.97;63.40
49947;BME280;35839;48.662;13.300;2023-05-14T18:51:14;96905.53;;;14.08;63.09
49947;BME280;35839;48.662;13.300;2023-05-14T18:53:40;96910.69;;;13.57;61.95
49947;BME280;35839;48.662;13.300;2023-05-14T18:56:05;96911.31;;;13.44;62.50
49947;BME280;35839;48.662;13.300;2023-05-14T18:58:31;96911.69;;;13.56;62.80
49947;BME280;35839;48.662;13.300;2023-05-14T19:00:56;96908.69;;;13.44;62.85
49947;BME280;35839;48.662;13.300;2023-05-14T19:03:23;96912.88;;;13.54;63.02
49947;BME280;35839;48.662;13.300;2023-05-14T19:05:49;96912.44;;;13.65;62.63
49947;BME280;35839;48.662;13.300;2023-05-14T19:08:16;96912.78;;;13.77;62.69
49947;BME280;35839;48.662;13.300;2023-05-14T19:10:41;96920.16;;;13.66;62.63
49947;BME280;35839;48.662;13.300;2023-05-14T19:13:07;96918.59;;;13.57;63.21
49947;BME280;35839;48.662;13.300;2023-05-14T19:15:33;96924.59;;;13.66;63.37
49947;BME280;35839;48.662;13.300;2023-05-14T19:17:59;96921.97;;;13.66;62.70
49947;BME280;35839;48.662;13.300;2023-05-14T19:20:26;96912.75;;;13.47;62.95
49947;BME280;35839;48.662;13.300;2023-05-14T19:22:52;96923.66;;;13.44;62.83
49947;BME280;35839;48.662;13.300;2023-05-14T19:25:17;96916.84;;;13.49;62.78
49947;BME280;35839;48.662;13.300;2023-05-14T19:27:45;96919.84;;;13.46;63.13
49947;BME280;35839;48.662;13.300;2023-05-14T19:30:15;96921.41;;;13.56;63.20
49947;BME280;35839;48.662;13.300;2023-05-14T19:32:41;96924.13;;;13.47;62.87
49947;BME280;35839;48.662;13.300;2023-05-14T19:35:06;96916.06;;;13.64;62.88
49947;BME280;35839;48.662;13.300;2023-05-14T19:37:32;96915.06;;;13.65;63.11
49947;BME280;35839;48.662;13.300;2023-05-14T19:39:57;96916.50;;;13.53;63.50
49947;BME280;35839;48.662;13.300;2023-05-14T19:42:23;96917.47;;;13.52;63.45
49947;BME280;35839;48.662;13.300;2023-05-14T19:44:49;96908.81;;;13.66;63.54
49947;BME280;35839;48.662;13.300;2023-05-14T19:47:14;96913.06;;;13.67;63.73
49947;BME280;35839;48.662;13.300;2023-05-14T19:49:40;96911.88;;;13.55;63.83
49947;BME280;35839;48.662;13.300;2023-05-14T19:52:05;96903.72;;;13.64;64.29
49947;BME280;35839;48.662;13.300;2023-05-14T19:54:31;96912.06;;;13.53;63.82
49947;BME280;35839;48.662;13.300;2023-05-14T19:56:56;96902.34;;;13.54;64.04
49947;BME280;35839;48.662;13.300;2023-05-14T19:59:21;96896.53;;;13.43;64.03
49947;BME280;35839;48.662;13.300;2023-05-14T20:01:47;96883.28;;;13.52;64.40
49947;BME280;35839;48.662;13.300;2023-05-14T20:04:12;96889.19;;;13.54;64.39
49947;BME280;35839;48.662;13.300;2023-05-14T20:06:40;96892.28;;;13.57;64.44
49947;BME280;35839;48.662;13.300;2023-05-14T20:09:05;96888.56;;;13.37;64.35
49947;BME280;35839;48.662;13.300;2023-05-14T20:11:31;96890.38;;;13.36;64.73
49947;BME280;35839;48.662;13.300;2023-05-14T20:13:56;96886.16;;;13.27;65.04
49947;BME280;35839;48.662;13.300;2023-05-14T20:16:21;96893.34;;;13.33;65.16
49947;BME280;35839;48.662;13.300;2023-05-14T20:18:48;96887.38;;;13.39;65.81
49947;BME280;35839;48.662;13.300;2023-05-14T20:21:13;96889.28;;;13.45;65.60
49947;BME280;35839;48.662;13.300;2023-05-14T20:23:40;96881.88;;;13.26;65.66
49947;BME280;35839;48.662;13.300;2023-05-14T20:26:05;96873.91;;;13.19;65.42
49947;BME280;35839;48.662;13.300;2023-05-14T20:28:30;96880.25;;;13.10;65.50
49947;BME280;35839;48.662;13.300;2023-05-14T20:30:56;96881.72;;;13.27;66.00
49947;BME280;35839;48.662;13.300;2023-05-14T20:33:23;96874.50;;;13.06;65.94
49947;BME280;35839;48.662;13.300;2023-05-14T20:35:48;96876.44;;;13.13;65.52
49947;BME280;35839;48.662;13.300;2023-05-14T20:38:15;96875.69;;;13.19;65.76
49947;BME280;35839;48.662;13.300;2023-05-14T20:40:42;96876.97;;;13.23;65.64
49947;BME280;35839;48.662;13.300;2023-05-14T20:43:08;96872.25;;;13.18;66.16
49947;BME280;35839;48.662;13.300;2023-05-14T20:45:34;96866.25;;;13.10;66.01
49947;BME280;35839;48.662;13.300;2023-05-14T20:48:00;96868.22;;;12.93;66.52
49947;BME280;35839;48.662;13.300;2023-05-14T20:50:25;96877.22;;;12.98;66.68
49947;BME280;35839;48.662;13.300;2023-05-14T20:52:52;96872.81;;;12.91;66.66
49947;BME280;35839;48.662;13.300;2023-05-14T20:55:17;96870.69;;;12.94;66.80
49947;BME280;35839;48.662;13.300;2023-05-14T20:57:43;96867.00;;;13.18;66.91
